createdAt,value
2018-06-21T00:00:38.508Z,94.10
2018-06-21T00:03:06.304Z,94.20
2018-06-21T00:05:33.854Z,94.20
2018-06-21T00:08:01.404Z,94.30
2018-06-21T00:10:28.937Z,94.30
2018-06-21T00:12:56.438Z,94.40
2018-06-21T00:15:23.949Z,94.40
2018-06-21T00:17:51.533Z,94.50
2018-06-21T00:20:19.107Z,94.60
2018-06-21T00:22:46.677Z,94.70
2018-06-21T00:25:14.292Z,94.70
2018-06-21T00:27:41.972Z,94.80
2018-06-21T00:30:09.516Z,95.00
2018-06-21T00:32:37.076Z,95.10
2018-06-21T00:35:04.762Z,95.20
2018-06-21T00:37:32.277Z,95.20
2018-06-21T00:39:59.859Z,95.40
2018-06-21T00:42:27.408Z,95.50
2018-06-21T00:44:54.949Z,95.50
2018-06-21T00:47:22.515Z,95.50
2018-06-21T00:49:50.069Z,95.60
2018-06-21T00:52:17.585Z,95.60
2018-06-21T00:54:45.177Z,95.60
2018-06-21T00:57:12.741Z,95.70
2018-06-21T00:59:40.278Z,95.70
2018-06-21T01:02:07.817Z,95.80
2018-06-21T01:04:35.306Z,96.00
2018-06-21T01:07:02.853Z,96.00
2018-06-21T01:09:30.406Z,96.20
2018-06-21T01:11:57.983Z,96.40
2018-06-21T01:14:25.528Z,96.50
2018-06-21T01:16:53.387Z,96.60
2018-06-21T01:19:20.932Z,96.60
2018-06-21T01:21:48.478Z,96.70
2018-06-21T01:24:16.009Z,96.70
2018-06-21T01:26:43.616Z,96.80
2018-06-21T01:29:11.113Z,96.80
2018-06-21T01:31:38.635Z,96.80
2018-06-21T01:34:06.175Z,96.90
2018-06-21T01:36:33.676Z,97.00
2018-06-21T01:39:01.217Z,97.10
2018-06-21T01:41:28.842Z,97.20
2018-06-21T01:43:56.357Z,97.20
2018-06-21T01:46:23.914Z,97.30
2018-06-21T01:48:51.451Z,97.40
2018-06-21T01:51:19.009Z,97.40
2018-06-21T01:53:46.536Z,97.40
2018-06-21T01:56:14.053Z,97.50
2018-06-21T01:58:41.607Z,97.50
2018-06-21T02:01:09.128Z,97.50
2018-06-21T02:03:36.702Z,97.50
2018-06-21T02:06:04.300Z,97.50
2018-06-21T02:08:31.864Z,97.50
2018-06-21T02:10:59.416Z,97.60
2018-06-21T02:13:27.068Z,97.70
2018-06-21T02:15:54.610Z,97.80
2018-06-21T02:18:22.145Z,97.80
2018-06-21T02:20:49.664Z,97.90
2018-06-21T02:23:22.694Z,98.10
2018-06-21T02:25:50.233Z,98.10
2018-06-21T02:28:17.805Z,98.20
2018-06-21T02:30:45.345Z,98.30
2018-06-21T02:33:12.899Z,98.30
2018-06-21T02:35:40.439Z,98.40
2018-06-21T02:38:07.942Z,99.00
2018-06-21T02:40:35.594Z,99.40
2018-06-21T02:43:03.186Z,99.20
2018-06-21T02:45:30.703Z,98.80
2018-06-21T02:47:58.253Z,98.40
2018-06-21T02:50:25.791Z,98.10
2018-06-21T02:52:53.351Z,97.80
2018-06-21T02:55:20.907Z,97.50
2018-06-21T02:57:48.450Z,97.20
2018-06-21T03:00:15.990Z,97.00
2018-06-21T03:02:43.517Z,96.80
2018-06-21T03:05:11.038Z,96.90
2018-06-21T03:07:38.597Z,96.40
2018-06-21T03:10:06.139Z,96.20
2018-06-21T03:12:33.669Z,96.10
2018-06-21T03:15:01.257Z,96.10
2018-06-21T03:17:28.797Z,96.10
2018-06-21T03:19:56.331Z,96.20
2018-06-21T03:22:23.853Z,96.20
2018-06-21T03:24:51.353Z,96.10
2018-06-21T03:27:18.915Z,96.10
2018-06-21T03:29:46.463Z,96.10
2018-06-21T03:32:14.034Z,96.00
2018-06-21T03:34:41.575Z,95.90
2018-06-21T03:37:09.133Z,95.90
2018-06-21T03:39:36.718Z,95.90
2018-06-21T03:42:04.251Z,96.40
2018-06-21T03:44:31.781Z,96.20
2018-06-21T03:46:59.310Z,96.30
2018-06-21T03:49:26.856Z,96.20
2018-06-21T03:51:54.363Z,96.20
2018-06-21T03:54:21.865Z,96.20
2018-06-21T03:56:49.391Z,96.20
2018-06-21T03:59:16.947Z,96.10
2018-06-21T04:01:44.445Z,96.20
2018-06-21T04:04:11.991Z,96.50
2018-06-21T04:06:39.511Z,96.60
2018-06-21T04:09:08.140Z,96.70
2018-06-21T04:11:35.740Z,96.60
2018-06-21T04:14:03.270Z,96.60
2018-06-21T04:16:30.937Z,96.80
2018-06-21T04:18:58.444Z,96.90
2018-06-21T04:21:25.950Z,96.70
2018-06-21T04:23:53.480Z,96.50
2018-06-21T04:26:20.980Z,96.40
2018-06-21T04:28:48.539Z,96.20
2018-06-21T04:31:16.086Z,96.30
2018-06-21T04:33:43.645Z,96.50
2018-06-21T04:36:11.180Z,96.40
2018-06-21T04:38:38.692Z,96.50
2018-06-21T04:41:06.342Z,96.60
2018-06-21T04:43:33.875Z,96.50
2018-06-21T04:46:01.457Z,96.50
2018-06-21T04:48:29.042Z,96.60
2018-06-21T04:50:56.581Z,97.00
2018-06-21T04:53:24.180Z,97.00
2018-06-21T04:55:51.709Z,97.10
2018-06-21T04:58:19.250Z,97.00
2018-06-21T05:00:46.804Z,97.00
2018-06-21T05:03:14.330Z,97.10
2018-06-21T05:05:41.893Z,97.40
2018-06-21T05:08:09.426Z,97.40
2018-06-21T05:10:36.967Z,97.40
2018-06-21T05:13:04.539Z,97.20
2018-06-21T05:15:32.097Z,97.00
2018-06-21T05:17:59.636Z,97.00
2018-06-21T05:20:27.165Z,97.10
2018-06-21T05:22:54.721Z,97.10
2018-06-21T05:25:22.248Z,97.20
2018-06-21T05:27:49.798Z,96.90
2018-06-21T05:30:17.369Z,96.80
2018-06-21T05:32:44.943Z,96.60
2018-06-21T05:35:12.591Z,96.60
2018-06-21T05:37:40.162Z,96.50
2018-06-21T05:40:17.915Z,96.30
2018-06-21T05:42:45.471Z,96.00
2018-06-21T05:45:12.991Z,96.00
2018-06-21T05:47:40.529Z,96.00
2018-06-21T05:50:08.104Z,96.10
2018-06-21T05:52:35.640Z,96.00
2018-06-21T05:55:03.219Z,96.50
2018-06-21T05:57:30.757Z,95.90
2018-06-21T05:59:58.272Z,95.60
2018-06-21T06:02:25.765Z,95.30
2018-06-21T06:04:53.306Z,95.20
2018-06-21T06:07:20.797Z,94.80
2018-06-21T06:09:48.306Z,94.10
2018-06-21T06:12:15.859Z,93.60
2018-06-21T06:14:43.389Z,93.40
2018-06-21T06:17:10.935Z,93.70
2018-06-21T06:19:38.449Z,93.30
2018-06-21T06:22:05.980Z,93.30
2018-06-21T06:24:33.548Z,93.00
2018-06-21T06:27:01.103Z,92.90
2018-06-21T06:29:28.629Z,92.50
2018-06-21T06:31:56.196Z,92.20
2018-06-21T06:34:23.859Z,92.40
2018-06-21T06:36:51.387Z,92.30
2018-06-21T06:39:20.024Z,91.60
2018-06-21T06:41:50.969Z,91.30
2018-06-21T06:44:18.887Z,91.00
2018-06-21T06:46:46.409Z,90.80
2018-06-21T06:49:13.984Z,90.60
2018-06-21T06:51:41.525Z,90.00
2018-06-21T06:54:10.136Z,90.00
2018-06-21T06:56:37.735Z,89.20
2018-06-21T06:59:05.365Z,88.20
2018-06-21T07:01:32.901Z,88.00
2018-06-21T07:04:00.460Z,88.10
2018-06-21T07:06:27.974Z,87.50
2018-06-21T07:08:56.086Z,86.60
2018-06-21T07:11:23.921Z,85.90
2018-06-21T07:13:51.500Z,85.70
2018-06-21T07:16:19.040Z,85.70
2018-06-21T07:18:46.606Z,85.60
2018-06-21T07:21:14.148Z,85.20
2018-06-21T07:23:41.738Z,84.40
2018-06-21T07:26:09.250Z,84.20
2018-06-21T07:28:36.770Z,84.10
2018-06-21T07:31:04.289Z,83.30
2018-06-21T07:33:31.912Z,82.80
2018-06-21T07:38:26.877Z,82.10
2018-06-21T07:40:54.411Z,81.70
2018-06-21T07:43:22.012Z,81.20
2018-06-21T07:45:49.560Z,80.30
2018-06-21T07:48:17.076Z,79.40
2018-06-21T07:50:44.628Z,77.00
2018-06-21T07:53:12.160Z,76.80
2018-06-21T07:55:39.705Z,76.00
2018-06-21T07:58:07.234Z,75.30
2018-06-21T08:00:34.745Z,73.60
2018-06-21T08:03:02.269Z,74.20
2018-06-21T08:05:29.826Z,74.10
2018-06-21T08:07:57.433Z,73.90
2018-06-21T08:10:24.973Z,73.90
2018-06-21T08:12:52.561Z,73.50
2018-06-21T08:15:20.029Z,72.50
2018-06-21T08:17:47.595Z,72.90
2018-06-21T08:20:15.146Z,72.50
2018-06-21T08:22:42.711Z,71.70
2018-06-21T08:25:10.247Z,70.00
2018-06-21T08:27:37.807Z,69.70
2018-06-21T08:30:05.366Z,69.70
2018-06-21T08:32:32.907Z,69.20
2018-06-21T08:35:00.469Z,69.50
2018-06-21T08:37:28.025Z,68.10
2018-06-21T08:39:55.629Z,67.10
2018-06-21T08:42:23.138Z,67.40
2018-06-21T08:44:50.678Z,67.20
2018-06-21T08:47:18.208Z,67.00
2018-06-21T08:49:45.783Z,67.60
2018-06-21T08:52:13.361Z,66.20
2018-06-21T08:54:40.894Z,65.60
2018-06-21T08:57:08.461Z,66.10
2018-06-21T08:59:35.966Z,66.50
2018-06-21T09:02:03.512Z,65.90
2018-06-21T09:04:31.075Z,65.10
2018-06-21T09:06:58.611Z,64.00
2018-06-21T09:09:26.250Z,64.00
2018-06-21T09:11:53.794Z,63.00
2018-06-21T09:14:21.355Z,63.30
2018-06-21T09:16:48.909Z,63.00
2018-06-21T09:19:16.477Z,63.90
2018-06-21T09:21:44.041Z,62.50
2018-06-21T09:24:11.552Z,62.00
2018-06-21T09:26:39.118Z,61.20
2018-06-21T09:29:06.640Z,60.60
2018-06-21T09:31:34.217Z,60.20
2018-06-21T09:34:01.771Z,59.50
2018-06-21T09:36:33.854Z,59.20
2018-06-21T09:40:08.775Z,57.00
2018-06-21T09:42:41.981Z,56.70
2018-06-21T09:45:09.537Z,56.60
2018-06-21T09:47:42.548Z,56.50
2018-06-21T09:50:10.184Z,56.20
2018-06-21T09:52:37.803Z,57.10
2018-06-21T09:55:05.288Z,56.80
2018-06-21T09:57:32.804Z,57.00
2018-06-21T10:00:00.371Z,57.00
2018-06-21T10:02:27.906Z,56.70
2018-06-21T10:04:55.470Z,57.50
2018-06-21T10:07:23.053Z,58.10
2018-06-21T10:09:50.580Z,58.90
2018-06-21T10:12:18.492Z,57.50
2018-06-21T10:14:46.040Z,56.40
2018-06-21T10:17:13.629Z,56.00
2018-06-21T10:19:41.387Z,55.60
2018-06-21T10:22:08.941Z,55.40
2018-06-21T10:24:36.536Z,54.30
2018-06-21T10:27:04.090Z,53.40
2018-06-21T10:29:31.858Z,52.80
2018-06-21T10:31:59.393Z,53.90
2018-06-21T10:34:26.904Z,53.80
2018-06-21T10:36:54.492Z,53.00
2018-06-21T10:39:24.287Z,51.80
2018-06-21T10:41:51.853Z,50.50
2018-06-21T10:44:19.383Z,49.80
2018-06-21T10:46:46.913Z,49.90
2018-06-21T10:49:14.488Z,47.80
2018-06-21T10:51:42.004Z,48.00
2018-06-21T10:54:09.553Z,48.70
2018-06-21T10:56:37.069Z,48.80
2018-06-21T10:59:04.626Z,48.70
2018-06-21T11:01:32.185Z,50.70
2018-06-21T11:03:59.683Z,55.20
2018-06-21T11:06:27.267Z,61.30
2018-06-21T11:08:54.859Z,66.00
2018-06-21T11:11:22.463Z,69.90
2018-06-21T11:13:50.099Z,73.00
2018-06-21T11:16:17.703Z,74.50
2018-06-21T11:18:45.294Z,74.70
2018-06-21T11:21:12.877Z,75.40
2018-06-21T11:23:40.441Z,76.00
2018-06-21T11:26:07.958Z,76.10
2018-06-21T11:28:35.504Z,76.10
2018-06-21T11:31:03.069Z,73.50
2018-06-21T11:33:30.618Z,68.30
2018-06-21T11:35:58.180Z,67.00
2018-06-21T11:38:25.758Z,66.70
2018-06-21T11:40:53.316Z,67.50
2018-06-21T11:43:20.848Z,66.60
2018-06-21T11:45:48.451Z,67.20
2018-06-21T11:48:16.004Z,68.30
2018-06-21T11:50:43.538Z,66.60
2018-06-21T11:53:11.061Z,68.00
2018-06-21T11:55:38.628Z,68.40
2018-06-21T11:58:06.191Z,68.40
2018-06-21T12:00:33.736Z,68.60
2018-06-21T12:03:01.375Z,65.80
2018-06-21T12:05:28.895Z,63.10
2018-06-21T12:07:56.449Z,63.30
2018-06-21T12:10:24.144Z,64.10
2018-06-21T12:12:51.703Z,64.00
2018-06-21T12:15:19.246Z,64.60
2018-06-21T12:17:46.789Z,61.20
2018-06-21T12:20:14.324Z,59.00
2018-06-21T12:22:41.926Z,55.90
2018-06-21T12:25:09.502Z,54.60
2018-06-21T12:27:37.114Z,52.50
2018-06-21T12:30:04.670Z,49.90
2018-06-21T12:32:32.237Z,48.60
2018-06-21T12:34:59.788Z,49.20
2018-06-21T12:37:27.412Z,49.30
2018-06-21T12:39:54.934Z,49.20
2018-06-21T12:42:22.485Z,48.50
2018-06-21T12:44:50.066Z,47.00
2018-06-21T12:47:17.640Z,46.80
2018-06-21T12:49:45.214Z,47.50
2018-06-21T12:52:12.843Z,48.70
2018-06-21T12:54:40.405Z,49.30
2018-06-21T12:57:07.970Z,48.30
2018-06-21T12:59:35.778Z,47.50
2018-06-21T13:02:03.341Z,46.40
2018-06-21T13:04:30.863Z,44.40
2018-06-21T13:06:58.428Z,44.80
2018-06-21T13:09:37.208Z,45.60
2018-06-21T13:12:36.841Z,44.90
2018-06-21T13:15:04.915Z,41.10
2018-06-21T13:17:32.541Z,41.50
2018-06-21T13:20:01.348Z,41.10
2018-06-21T13:22:28.910Z,41.60
2018-06-21T13:24:56.649Z,40.30
2018-06-21T13:27:24.235Z,39.00
2018-06-21T13:29:51.954Z,39.30
2018-06-21T13:32:19.658Z,39.70
2018-06-21T13:34:47.350Z,41.00
2018-06-21T13:37:14.987Z,43.30
2018-06-21T13:39:42.740Z,45.00
2018-06-21T13:42:10.333Z,46.80
2018-06-21T13:44:37.957Z,46.80
2018-06-21T13:47:05.585Z,45.90
2018-06-21T13:49:33.125Z,45.60
2018-06-21T13:52:00.726Z,46.00
2018-06-21T13:54:28.392Z,46.10
2018-06-21T13:56:55.964Z,45.80
2018-06-21T13:59:23.485Z,46.00
2018-06-21T14:01:51.194Z,45.50
2018-06-21T14:04:18.838Z,44.90
2018-06-21T14:06:46.393Z,44.40
2018-06-21T14:09:13.996Z,44.40
2018-06-21T14:11:42.124Z,44.40
2018-06-21T14:14:10.040Z,43.60
2018-06-21T14:16:37.597Z,43.70
2018-06-21T14:19:05.300Z,44.20
2018-06-21T14:21:33.004Z,45.00
2018-06-21T14:24:00.534Z,44.80
2018-06-21T14:26:28.074Z,44.40
2018-06-21T14:28:55.779Z,45.30
2018-06-21T14:31:24.123Z,44.70
2018-06-21T14:33:52.082Z,45.40
2018-06-21T14:36:19.662Z,46.90
2018-06-21T14:38:47.243Z,46.60
2018-06-21T14:41:14.862Z,46.70
2018-06-21T14:43:42.818Z,46.30
2018-06-21T14:46:10.899Z,46.30
2018-06-21T14:48:38.487Z,46.00
2018-06-21T14:51:06.102Z,46.30
2018-06-21T14:53:33.690Z,46.60
2018-06-21T14:56:01.257Z,47.70
2018-06-21T14:58:28.900Z,49.10
2018-06-21T15:00:56.540Z,49.70
2018-06-21T15:03:24.142Z,50.00
2018-06-21T15:05:51.733Z,51.90
2018-06-21T15:08:19.274Z,54.60
2018-06-21T15:10:46.885Z,53.40
2018-06-21T15:13:14.482Z,55.00
2018-06-21T15:15:42.087Z,57.60
2018-06-21T15:18:09.668Z,59.30
2018-06-21T15:20:37.241Z,61.10
2018-06-21T15:23:04.897Z,62.20
2018-06-21T15:25:32.406Z,62.90
2018-06-21T15:27:59.959Z,64.30
2018-06-21T15:30:27.614Z,64.50
2018-06-21T15:32:55.294Z,65.30
2018-06-21T15:35:22.870Z,65.20
2018-06-21T15:37:50.573Z,65.50
2018-06-21T15:40:18.212Z,66.00
2018-06-21T15:42:45.778Z,66.80
2018-06-21T15:45:13.754Z,67.80
2018-06-21T15:47:41.293Z,68.00
2018-06-21T15:50:08.903Z,68.70
2018-06-21T15:52:36.631Z,69.20
2018-06-21T15:55:04.331Z,69.80
2018-06-21T15:57:31.895Z,70.30
2018-06-21T15:59:59.454Z,70.50
2018-06-21T16:02:27.016Z,70.40
2018-06-21T16:04:54.609Z,69.90
2018-06-21T16:07:22.188Z,68.20
2018-06-21T16:09:49.831Z,65.90
2018-06-21T16:12:17.374Z,62.90
2018-06-21T16:14:44.938Z,61.20
2018-06-21T16:17:12.481Z,61.40
2018-06-21T16:19:40.037Z,62.20
2018-06-21T16:22:07.590Z,62.20
2018-06-21T16:24:35.203Z,63.80
2018-06-21T16:27:02.765Z,65.50
2018-06-21T16:29:30.280Z,66.60
2018-06-21T16:31:57.842Z,67.00
2018-06-21T16:34:25.446Z,66.90
2018-06-21T16:36:53.027Z,66.60
2018-06-21T16:39:20.604Z,64.60
2018-06-21T16:41:48.232Z,63.20
2018-06-21T16:44:15.878Z,61.60
2018-06-21T16:46:43.437Z,61.30
2018-06-21T16:49:11.000Z,60.90
2018-06-21T16:51:38.624Z,60.70
2018-06-21T16:54:06.204Z,60.40
2018-06-21T16:56:33.770Z,58.40
2018-06-21T16:59:01.335Z,56.30
2018-06-21T17:01:28.893Z,55.10
2018-06-21T17:03:56.468Z,55.90
2018-06-21T17:06:24.028Z,56.40
2018-06-21T17:08:51.610Z,54.70
2018-06-21T17:11:19.232Z,55.70
2018-06-21T17:13:46.870Z,55.70
2018-06-21T17:16:14.467Z,56.20
2018-06-21T17:18:42.036Z,56.70
2018-06-21T17:21:09.619Z,56.20
2018-06-21T17:23:37.207Z,53.50
2018-06-21T17:26:04.887Z,54.90
2018-06-21T17:28:33.097Z,55.40
2018-06-21T17:31:00.700Z,54.30
2018-06-21T17:33:28.314Z,54.20
2018-06-21T17:35:55.877Z,54.20
2018-06-21T17:38:24.029Z,54.00
2018-06-21T17:40:51.647Z,54.10
2018-06-21T17:43:19.205Z,54.30
2018-06-21T17:45:46.767Z,54.40
2018-06-21T17:48:14.327Z,54.40
2018-06-21T17:50:42.167Z,54.00
2018-06-21T17:53:09.904Z,54.30
2018-06-21T17:55:37.587Z,54.50
2018-06-21T17:58:05.310Z,54.70
2018-06-21T18:00:32.941Z,55.00
2018-06-21T18:03:00.601Z,54.90
2018-06-21T18:05:28.159Z,55.10
2018-06-21T18:07:55.843Z,55.30
2018-06-21T18:10:23.480Z,55.30
2018-06-21T18:12:51.059Z,55.80
2018-06-21T18:15:18.709Z,55.50
2018-06-21T18:17:46.948Z,55.70
2018-06-21T18:20:14.690Z,55.90
2018-06-21T18:22:42.397Z,56.00
2018-06-21T18:25:10.104Z,56.00
2018-06-21T18:30:06.057Z,56.60
2018-06-21T18:32:34.590Z,56.70
2018-06-21T18:35:02.342Z,56.80
2018-06-21T18:37:30.069Z,56.90
2018-06-21T18:39:57.798Z,57.30
2018-06-21T18:42:25.504Z,57.60
2018-06-21T18:44:53.193Z,57.90
2018-06-21T18:47:20.867Z,58.10
2018-06-21T18:49:48.616Z,58.20
2018-06-21T18:52:16.280Z,58.50
2018-06-21T18:54:43.992Z,58.90
2018-06-21T18:57:11.760Z,59.20
2018-06-21T18:59:39.429Z,59.50
2018-06-21T19:02:07.099Z,59.70
2018-06-21T19:04:34.736Z,59.90
2018-06-21T19:07:08.748Z,60.00
2018-06-21T19:09:42.088Z,60.20
2018-06-21T19:12:10.041Z,60.10
2018-06-21T19:14:37.725Z,61.10
2018-06-21T19:17:05.408Z,60.80
2018-06-21T19:19:33.034Z,61.20
2018-06-21T19:22:00.721Z,61.20
2018-06-21T19:24:28.381Z,61.50
2018-06-21T19:26:56.054Z,61.50
2018-06-21T19:29:23.733Z,61.80
2018-06-21T19:31:51.419Z,62.10
2018-06-21T19:34:19.045Z,62.50
2018-06-21T19:36:47.198Z,63.00
2018-06-21T19:39:14.786Z,62.90
2018-06-21T19:41:42.501Z,64.00
2018-06-21T19:44:10.747Z,65.40
2018-06-21T19:46:38.391Z,67.10
2018-06-21T19:49:06.076Z,67.90
2018-06-21T19:51:33.653Z,68.50
2018-06-21T19:54:01.702Z,69.10
2018-06-21T19:56:29.286Z,69.50
2018-06-21T19:58:56.973Z,69.90
2018-06-21T20:01:24.609Z,70.00
2018-06-21T20:03:52.297Z,70.00
2018-06-21T20:06:19.878Z,70.20
2018-06-21T20:08:47.510Z,70.50
2018-06-21T20:11:20.845Z,70.80
2018-06-21T20:13:49.617Z,71.40
2018-06-21T20:16:17.644Z,71.90
2018-06-21T20:18:45.200Z,73.10
2018-06-21T20:21:13.881Z,73.90
2018-06-21T20:23:43.177Z,74.90
2018-06-21T20:26:11.121Z,75.90
2018-06-21T20:28:38.940Z,76.90
2018-06-21T20:31:07.333Z,77.30
2018-06-21T20:33:34.926Z,77.30
2018-06-21T20:36:02.514Z,76.80
2018-06-21T20:38:30.044Z,76.50
2018-06-21T20:40:57.657Z,76.30
2018-06-21T20:43:25.179Z,77.00
2018-06-21T20:45:52.721Z,76.10
2018-06-21T20:48:20.282Z,75.90
2018-06-21T20:50:47.814Z,75.90
2018-06-21T20:53:15.397Z,76.00
2018-06-21T20:55:42.980Z,75.30
2018-06-21T20:58:10.527Z,75.40
2018-06-21T21:00:38.037Z,75.00
2018-06-21T21:03:05.578Z,75.10
2018-06-21T21:05:33.193Z,74.90
2018-06-21T21:08:00.739Z,74.90
2018-06-21T21:10:28.287Z,75.20
2018-06-21T21:12:55.846Z,75.20
2018-06-21T21:15:23.408Z,74.30
2018-06-21T21:17:50.933Z,73.90
2018-06-21T21:20:18.473Z,74.20
2018-06-21T21:22:46.039Z,74.40
2018-06-21T21:25:13.556Z,74.20
2018-06-21T21:27:41.097Z,74.20
2018-06-21T21:30:09.184Z,74.20
2018-06-21T21:32:36.786Z,74.70
2018-06-21T21:35:04.424Z,75.20
2018-06-21T21:37:32.011Z,75.20
2018-06-21T21:40:01.963Z,74.80
2018-06-21T21:42:30.554Z,74.40
2018-06-21T21:44:58.173Z,74.20
2018-06-21T21:47:25.721Z,74.30
2018-06-21T21:49:53.735Z,74.60
2018-06-21T21:52:21.510Z,74.90
2018-06-21T21:54:49.130Z,74.00
2018-06-21T21:57:16.710Z,73.50
2018-06-21T21:59:44.437Z,73.00
2018-06-21T22:02:11.999Z,73.40
2018-06-21T22:04:39.551Z,73.40
2018-06-21T22:07:07.138Z,73.60
2018-06-21T22:09:34.750Z,73.70
2018-06-21T22:12:02.323Z,73.50
2018-06-21T22:14:29.834Z,73.00
2018-06-21T22:16:57.409Z,72.60
2018-06-21T22:19:24.927Z,72.30
2018-06-21T22:21:52.470Z,71.50
2018-06-21T22:24:20.023Z,71.50
2018-06-21T22:26:47.566Z,71.40
2018-06-21T22:29:15.122Z,71.20
2018-06-21T22:31:42.665Z,70.90
2018-06-21T22:34:10.190Z,70.90
2018-06-21T22:36:37.732Z,71.00
2018-06-21T22:39:06.976Z,71.20
2018-06-21T22:41:34.530Z,70.90
2018-06-21T22:44:02.119Z,69.60
2018-06-21T22:46:29.697Z,67.50
2018-06-21T22:48:57.231Z,66.40
2018-06-21T22:51:24.760Z,64.40
2018-06-21T22:53:52.329Z,63.00
2018-06-21T22:56:19.835Z,62.30
2018-06-21T22:58:47.383Z,61.50
2018-06-21T23:01:14.919Z,59.80
2018-06-21T23:03:42.448Z,59.50
2018-06-21T23:06:10.023Z,59.80
2018-06-21T23:08:37.587Z,60.80
2018-06-21T23:11:05.163Z,61.00
2018-06-21T23:13:32.723Z,59.90
2018-06-21T23:16:00.273Z,60.20
2018-06-21T23:18:39.060Z,60.50
2018-06-21T23:21:06.598Z,59.70
2018-06-21T23:23:34.264Z,59.40
2018-06-21T23:26:02.654Z,59.10
2018-06-21T23:28:30.223Z,58.10
2018-06-21T23:30:57.783Z,57.50
2018-06-21T23:33:25.351Z,57.30
2018-06-21T23:35:52.865Z,57.60
2018-06-21T23:38:20.365Z,57.90
2018-06-21T23:40:47.911Z,58.00
2018-06-21T23:43:15.490Z,57.40
2018-06-21T23:45:43.091Z,57.80
2018-06-21T23:50:38.102Z,57.40
2018-06-21T23:53:05.626Z,57.00
2018-06-21T23:55:33.150Z,57.00
2018-06-21T23:58:00.672Z,56.40
